Terminal Aerodrome Forecast
Issued by NWS Sioux Falls, SD

Home | Current Version | Previous Version | Text Only | Print | Product List | Glossary Off
Versions: 1 2 3 4 5 6 7 8 9 10 11 12 13 14 15 16

000
FTUS43 KFSD 281132
TAFHON
TAF
KHON 281132Z 2812/2912 01008KT P6SM SCT015
     FM282100 04010KT P6SM BKN020 BKN080
     FM290100 02011KT P6SM OVC060
      TEMPO 2902/2904 P6SM -SN BKN015
     FM290500 03013KT P6SM BKN025=

USA.gov is the U.S. government's official web portal to all federal, state and local government web resources and services.